createdAt,value
2023-04-02T00:01:38.669Z,5.70
2023-04-02T00:04:16.532Z,2.70
2023-04-02T00:06:45.707Z,5.20
2023-04-02T00:09:15.497Z,3.10
2023-04-02T00:11:49.454Z,3.50
2023-04-02T00:14:29.218Z,4.70
2023-04-02T00:16:58.635Z,3.50
2023-04-02T00:19:43.500Z,3.80
2023-04-02T00:22:18.165Z,3.60
2023-04-02T00:24:46.621Z,4.60
2023-04-02T00:27:14.893Z,4.00
2023-04-02T00:29:54.273Z,3.80
2023-04-02T00:32:27.604Z,3.00
2023-04-02T00:34:56.004Z,2.50
2023-04-02T00:37:28.207Z,3.00
2023-04-02T00:40:07.354Z,1.90
2023-04-02T00:42:36.088Z,4.10
2023-04-02T00:45:05.318Z,3.80
2023-04-02T00:47:36.294Z,2.70
2023-04-02T00:50:16.922Z,2.60
2023-04-02T00:52:46.791Z,3.10
2023-04-02T00:55:32.240Z,2.50
2023-04-02T00:58:01.224Z,4.00
2023-04-02T01:00:34.867Z,3.00
2023-04-02T01:03:29.173Z,5.20
2023-04-02T01:06:03.000Z,2.80
2023-04-02T01:08:53.544Z,4.30
2023-04-02T01:11:34.837Z,3.20
2023-04-02T01:14:18.764Z,6.80
2023-04-02T01:17:18.579Z,3.30
2023-04-02T01:20:24.295Z,4.50
2023-04-02T01:23:08.829Z,3.30
2023-04-02T01:25:44.240Z,2.60
2023-04-02T01:28:35.373Z,3.60
2023-04-02T01:31:03.718Z,1.90
2023-04-02T01:33:35.477Z,3.80
2023-04-02T01:36:08.960Z,4.80
2023-04-02T01:38:46.178Z,2.80
2023-04-02T01:41:23.577Z,3.70
2023-04-02T01:43:55.553Z,3.70
2023-04-02T01:46:26.188Z,4.10
2023-04-02T01:48:55.880Z,4.60
2023-04-02T01:51:29.640Z,4.30
2023-04-02T01:53:59.964Z,3.00
2023-04-02T01:56:28.949Z,2.50
2023-04-02T01:58:57.895Z,2.80
2023-04-02T02:01:31.495Z,2.70
2023-04-02T02:04:01.556Z,2.60
2023-04-02T02:06:29.967Z,2.30
2023-04-02T02:09:05.223Z,3.40
2023-04-02T02:11:36.590Z,0.90
2023-04-02T02:14:25.445Z,2.90
2023-04-02T02:16:56.711Z,1.30
2023-04-02T02:19:42.938Z,1.40
2023-04-02T02:22:14.880Z,1.70
2023-04-02T02:24:43.564Z,2.40
2023-04-02T02:27:24.045Z,1.50
2023-04-02T02:30:05.695Z,1.70
2023-04-02T02:32:34.248Z,2.80
2023-04-02T02:35:11.685Z,1.60
2023-04-02T02:37:42.493Z,1.00
2023-04-02T02:40:32.536Z,1.70
2023-04-02T02:43:02.722Z,0.90
2023-04-02T02:45:35.900Z,2.10
2023-04-02T02:48:06.562Z,1.80
2023-04-02T02:50:34.935Z,1.20
2023-04-02T02:53:21.315Z,1.90
2023-04-02T02:55:52.395Z,1.60
2023-04-02T02:58:27.599Z,3.20
2023-04-02T03:01:11.498Z,2.00
2023-04-02T03:03:42.193Z,1.30
2023-04-02T03:06:12.285Z,1.20
2023-04-02T03:09:10.044Z,2.80
2023-04-02T03:11:45.281Z,0.60
2023-04-02T03:14:32.964Z,1.20
2023-04-02T03:17:07.503Z,1.90
2023-04-02T03:19:41.089Z,2.80
2023-04-02T03:22:36.085Z,2.00
2023-04-02T03:25:10.806Z,2.10
2023-04-02T03:27:41.305Z,0.90
2023-04-02T03:30:33.829Z,2.60
2023-04-02T03:33:06.492Z,3.20
2023-04-02T03:35:40.400Z,3.10
2023-04-02T03:38:16.164Z,3.30
2023-04-02T03:41:06.830Z,3.60
2023-04-02T03:43:39.900Z,4.60
2023-04-02T03:46:37.822Z,5.80
2023-04-02T03:49:31.942Z,6.10
2023-04-02T03:52:05.511Z,4.70
2023-04-02T03:54:34.096Z,3.50
2023-04-02T03:57:02.951Z,5.20
2023-04-02T03:59:37.008Z,4.00
2023-04-02T04:02:35.034Z,5.10
2023-04-02T04:05:05.234Z,3.40
2023-04-02T04:07:39.517Z,2.20
2023-04-02T04:10:08.893Z,2.30
2023-04-02T04:12:40.614Z,3.60
2023-04-02T04:15:34.439Z,2.70
2023-04-02T04:18:12.824Z,2.00
2023-04-02T04:21:00.241Z,1.50
2023-04-02T04:23:38.039Z,1.80
2023-04-02T04:26:20.146Z,2.00
2023-04-02T04:28:58.795Z,2.00
2023-04-02T04:31:39.021Z,2.40
2023-04-02T04:34:16.458Z,1.70
2023-04-02T04:36:54.774Z,1.40
2023-04-02T04:40:12.076Z,2.90
2023-04-02T04:42:41.867Z,1.30
2023-04-02T04:48:22.125Z,2.90
2023-04-02T04:50:57.729Z,4.00
2023-04-02T04:56:03.473Z,3.40
2023-04-02T04:58:50.037Z,3.70
2023-04-02T05:02:18.547Z,2.70
2023-04-02T05:04:51.760Z,2.60
2023-04-02T05:07:23.435Z,3.20
2023-04-02T05:09:56.016Z,3.10
2023-04-02T05:12:51.256Z,4.40
2023-04-02T05:15:27.815Z,5.20
2023-04-02T05:18:16.350Z,6.90
2023-04-02T05:20:47.839Z,7.80
2023-04-02T05:23:30.833Z,6.50
2023-04-02T05:26:31.418Z,5.00
2023-04-02T05:29:13.709Z,5.10
2023-04-02T05:31:45.177Z,6.70
2023-04-02T05:34:14.827Z,7.50
2023-04-02T05:36:46.723Z,8.00
2023-04-02T05:39:16.905Z,6.10
2023-04-02T05:41:49.380Z,4.90
2023-04-02T05:44:33.582Z,4.30
2023-04-02T05:47:06.843Z,4.30
2023-04-02T05:49:39.498Z,4.20
2023-04-02T05:52:13.815Z,6.30
2023-04-02T05:55:22.182Z,2.90
2023-04-02T05:58:21.322Z,4.00
2023-04-02T06:01:12.236Z,4.40
2023-04-02T06:03:46.588Z,4.50
2023-04-02T06:06:49.539Z,8.30
2023-04-02T06:09:27.941Z,7.80
2023-04-02T06:12:23.905Z,8.20
2023-04-02T06:14:52.722Z,7.10
2023-04-02T06:17:23.039Z,8.00
2023-04-02T06:19:51.662Z,9.40
2023-04-02T06:22:35.370Z,6.70
2023-04-02T06:25:39.267Z,3.90
2023-04-02T06:28:24.378Z,3.50
2023-04-02T06:30:59.854Z,2.80
2023-04-02T06:33:31.601Z,3.30
2023-04-02T06:36:00.007Z,4.90
2023-04-02T06:38:31.712Z,3.20
2023-04-02T06:41:06.031Z,2.10
2023-04-02T06:44:05.841Z,2.30
2023-04-02T06:47:04.667Z,2.40
2023-04-02T06:49:38.438Z,3.00
2023-04-02T06:52:18.693Z,3.40
2023-04-02T06:54:47.382Z,4.60
2023-04-02T06:57:17.247Z,3.30
2023-04-02T06:59:49.503Z,4.60
2023-04-02T07:02:34.135Z,2.90
2023-04-02T07:05:09.476Z,4.20
2023-04-02T07:07:41.710Z,4.10
2023-04-02T07:10:13.033Z,3.10
2023-04-02T07:12:41.525Z,3.90
2023-04-02T07:15:19.383Z,5.50
2023-04-02T07:17:48.380Z,3.70
2023-04-02T07:20:34.220Z,3.00
2023-04-02T07:23:06.079Z,3.60
2023-04-02T07:25:34.650Z,3.00
2023-04-02T07:28:04.677Z,2.70
2023-04-02T07:30:33.667Z,3.30
2023-04-02T07:33:02.561Z,2.10
2023-04-02T07:35:31.721Z,4.00
2023-04-02T07:38:02.588Z,4.20
2023-04-02T07:40:31.277Z,3.70
2023-04-02T07:43:00.377Z,3.30
2023-04-02T07:45:29.094Z,4.30
2023-04-02T07:47:58.033Z,4.10
2023-04-02T07:50:28.554Z,3.70
2023-04-02T07:52:57.259Z,4.10
2023-04-02T07:55:28.583Z,6.00
2023-04-02T07:57:58.471Z,3.20
2023-04-02T08:00:28.902Z,3.30
2023-04-02T08:03:17.385Z,4.00
2023-04-02T08:05:56.402Z,4.60
2023-04-02T08:08:25.097Z,4.10
2023-04-02T08:10:55.572Z,3.90
2023-04-02T08:13:24.049Z,2.80
2023-04-02T08:15:52.488Z,4.00
2023-04-02T08:18:27.195Z,3.80
2023-04-02T08:23:24.722Z,5.10
2023-04-02T08:25:55.938Z,4.40
2023-04-02T08:28:24.213Z,3.20
2023-04-02T08:30:52.967Z,3.40
2023-04-02T08:33:22.599Z,3.00
2023-04-02T08:35:51.222Z,3.00
2023-04-02T08:38:20.691Z,3.40
2023-04-02T08:40:50.907Z,2.60
2023-04-02T08:44:11.506Z,3.20
2023-04-02T08:46:48.128Z,4.10
2023-04-02T08:49:47.685Z,3.70
2023-04-02T08:52:29.085Z,3.60
2023-04-02T08:54:58.314Z,4.80
2023-04-02T08:57:38.810Z,3.40
2023-04-02T09:00:37.966Z,2.80
2023-04-02T09:03:20.067Z,3.60
2023-04-02T09:05:56.970Z,3.50
2023-04-02T09:08:27.669Z,3.50
2023-04-02T09:11:22.310Z,2.70
2023-04-02T09:13:59.156Z,3.40
2023-04-02T09:16:39.714Z,3.00
2023-04-02T09:19:33.474Z,2.70
2023-04-02T09:22:16.640Z,3.80
2023-04-02T09:24:45.219Z,3.40
2023-04-02T09:27:21.238Z,2.80
2023-04-02T09:29:54.068Z,2.70
2023-04-02T09:32:46.220Z,3.10
2023-04-02T09:35:25.383Z,2.20
2023-04-02T09:38:24.221Z,3.00
2023-04-02T09:40:55.772Z,3.30
2023-04-02T09:43:26.480Z,3.40
2023-04-02T09:46:19.238Z,4.70
2023-04-02T09:48:54.816Z,2.60
2023-04-02T09:51:25.800Z,4.10
2023-04-02T09:54:03.500Z,2.30
2023-04-02T09:56:34.804Z,2.70
2023-04-02T09:59:16.321Z,3.30
2023-04-02T10:01:55.557Z,2.80
2023-04-02T10:04:31.866Z,2.20
2023-04-02T10:07:01.074Z,4.30
2023-04-02T10:09:37.307Z,3.50
2023-04-02T10:12:07.262Z,3.10
2023-04-02T10:14:43.506Z,4.10
2023-04-02T10:17:31.756Z,4.50
2023-04-02T10:20:11.565Z,5.00
2023-04-02T10:22:43.919Z,3.40
2023-04-02T10:25:16.291Z,3.80
2023-04-02T10:28:02.432Z,3.90
2023-04-02T10:30:39.392Z,4.30
2023-04-02T10:33:15.222Z,4.70
2023-04-02T10:35:52.875Z,3.90
2023-04-02T10:38:34.241Z,4.20
2023-04-02T10:41:11.645Z,3.90
2023-04-02T10:44:20.242Z,3.80
2023-04-02T10:47:02.149Z,2.90
2023-04-02T10:49:46.835Z,3.80
2023-04-02T10:52:28.698Z,4.00
2023-04-02T10:55:03.108Z,4.20
2023-04-02T10:57:41.769Z,3.00
2023-04-02T11:00:11.451Z,3.40
2023-04-02T11:02:59.415Z,3.00
2023-04-02T11:05:40.540Z,3.80
2023-04-02T11:08:41.814Z,2.80
2023-04-02T11:11:22.731Z,3.50
2023-04-02T11:13:56.496Z,3.70
2023-04-02T11:16:25.414Z,3.40
2023-04-02T11:19:18.596Z,2.00
2023-04-02T11:21:57.918Z,3.00
2023-04-02T11:24:32.500Z,2.70
2023-04-02T11:27:12.287Z,3.00
2023-04-02T11:29:43.088Z,2.70
2023-04-02T11:32:20.829Z,2.40
2023-04-02T11:34:59.784Z,2.20
2023-04-02T11:37:38.626Z,3.20
2023-04-02T11:40:14.062Z,2.30
2023-04-02T11:42:43.926Z,3.10
2023-04-02T11:45:28.568Z,2.30
2023-04-02T11:48:17.083Z,2.40
2023-04-02T11:50:46.133Z,2.50
2023-04-02T11:53:17.437Z,2.70
2023-04-02T11:56:08.340Z,3.40
2023-04-02T11:58:58.933Z,2.70
2023-04-02T12:02:05.921Z,3.20
2023-04-02T12:04:40.841Z,3.30
2023-04-02T12:07:21.409Z,2.60
2023-04-02T12:09:51.314Z,3.40
2023-04-02T12:13:47.916Z,2.80
2023-04-02T12:16:16.975Z,3.00
2023-04-02T12:18:51.333Z,1.50
2023-04-02T12:21:21.707Z,2.40
2023-04-02T12:23:52.083Z,3.40
2023-04-02T12:26:42.428Z,1.20
2023-04-02T12:29:27.160Z,2.70
2023-04-02T12:31:57.193Z,2.10
2023-04-02T12:34:27.625Z,2.70
2023-04-02T12:37:03.906Z,2.10
2023-04-02T12:39:33.433Z,2.40
2023-04-02T12:44:53.046Z,2.70
2023-04-02T12:47:21.887Z,2.90
2023-04-02T12:49:51.381Z,2.20
2023-04-02T12:52:21.077Z,2.10
2023-04-02T12:54:51.704Z,1.90
2023-04-02T12:57:41.099Z,2.90
2023-04-02T13:00:24.100Z,2.60
2023-04-02T13:03:17.008Z,2.30
2023-04-02T13:05:48.870Z,2.00
2023-04-02T13:08:28.665Z,2.30
2023-04-02T13:10:59.395Z,2.60
2023-04-02T13:13:33.080Z,2.30
2023-04-02T13:16:07.014Z,1.50
2023-04-02T13:18:37.402Z,1.30
2023-04-02T13:21:29.799Z,1.70
2023-04-02T13:23:58.557Z,1.30
2023-04-02T13:26:28.272Z,1.40
2023-04-02T13:29:01.512Z,2.20
2023-04-02T13:31:32.913Z,2.30
2023-04-02T13:34:01.764Z,1.80
2023-04-02T13:36:31.370Z,2.10
2023-04-02T13:38:59.701Z,2.10
2023-04-02T13:41:30.140Z,2.10
2023-04-02T13:44:00.722Z,2.00
2023-04-02T13:46:32.054Z,1.50
2023-04-02T13:49:03.561Z,2.10
2023-04-02T13:51:37.299Z,1.90
2023-04-02T13:54:09.463Z,1.80
2023-04-02T13:56:38.464Z,1.40
2023-04-02T13:59:07.006Z,1.60
2023-04-02T14:01:35.390Z,1.80
2023-04-02T14:04:04.168Z,1.40
2023-04-02T14:06:56.170Z,2.10
2023-04-02T14:09:27.675Z,1.50
2023-04-02T14:11:59.077Z,1.80
2023-04-02T14:14:33.445Z,2.60
2023-04-02T14:20:10.840Z,2.10
2023-04-02T14:23:00.370Z,2.40
2023-04-02T14:26:19.671Z,2.40
2023-04-02T14:28:57.745Z,1.60
2023-04-02T14:31:39.033Z,2.20
2023-04-02T14:34:35.665Z,3.00
2023-04-02T14:37:13.977Z,2.70
2023-04-02T14:40:01.569Z,3.00
2023-04-02T14:42:55.876Z,2.10
2023-04-02T14:45:36.289Z,1.60
2023-04-02T14:48:14.588Z,2.10
2023-04-02T14:50:43.870Z,2.90
2023-04-02T14:53:16.285Z,1.80
2023-04-02T14:55:47.226Z,1.50
2023-04-02T14:58:33.765Z,2.40
2023-04-02T15:01:06.752Z,2.20
2023-04-02T15:03:43.475Z,1.90
2023-04-02T15:06:15.350Z,1.80
2023-04-02T15:09:08.456Z,0.90
2023-04-02T15:11:40.574Z,1.50
2023-04-02T15:14:21.248Z,2.30
2023-04-02T15:16:54.259Z,2.20
2023-04-02T15:19:23.154Z,1.80
2023-04-02T15:22:17.079Z,2.60
2023-04-02T15:25:29.411Z,2.10
2023-04-02T15:28:22.888Z,2.20
2023-04-02T15:30:59.054Z,2.30
2023-04-02T15:33:27.769Z,2.30
2023-04-02T15:36:34.689Z,2.30
2023-04-02T15:39:41.223Z,2.10
2023-04-02T15:45:02.549Z,1.70
2023-04-02T15:47:42.235Z,1.50
2023-04-02T15:50:26.716Z,1.20
2023-04-02T15:53:00.872Z,2.50
2023-04-02T15:55:42.014Z,0.90
2023-04-02T15:58:48.528Z,0.80
2023-04-02T16:01:45.842Z,1.10
2023-04-02T16:04:19.672Z,1.00
2023-04-02T16:07:10.297Z,1.10
2023-04-02T16:09:49.988Z,1.80
2023-04-02T16:12:23.893Z,2.40
2023-04-02T16:14:52.396Z,1.40
2023-04-02T16:17:34.332Z,1.50
2023-04-02T16:20:18.592Z,1.70
2023-04-02T16:22:59.999Z,1.60
2023-04-02T16:25:35.634Z,3.40
2023-04-02T16:28:15.992Z,3.50
2023-04-02T16:30:51.667Z,3.40
2023-04-02T16:33:27.307Z,1.60
2023-04-02T16:35:56.923Z,1.60
2023-04-02T16:38:40.986Z,1.10
2023-04-02T16:41:47.481Z,2.30
2023-04-02T16:44:34.612Z,1.20
2023-04-02T16:47:15.391Z,1.40
2023-04-02T16:50:12.137Z,1.90
2023-04-02T16:53:21.367Z,1.00
2023-04-02T16:56:18.723Z,1.10
2023-04-02T16:58:58.058Z,2.40
2023-04-02T17:01:41.624Z,1.50
2023-04-02T17:04:26.021Z,1.70
2023-04-02T17:07:16.370Z,2.60
2023-04-02T17:09:51.150Z,1.70
2023-04-02T17:12:23.830Z,1.90
2023-04-02T17:14:54.732Z,1.70
2023-04-02T17:17:23.392Z,1.40
2023-04-02T17:19:53.453Z,1.80
2023-04-02T17:22:22.012Z,2.00
2023-04-02T17:25:03.063Z,1.00
2023-04-02T17:27:39.740Z,1.60
2023-04-02T17:30:17.183Z,1.30
2023-04-02T17:32:54.947Z,1.90
2023-04-02T17:35:31.369Z,2.10
2023-04-02T17:38:25.074Z,2.80
2023-04-02T17:41:05.236Z,2.20
2023-04-02T17:43:40.982Z,2.40
2023-04-02T17:46:36.085Z,2.00
2023-04-02T17:49:32.020Z,1.60
2023-04-02T17:52:40.041Z,2.40
2023-04-02T17:55:27.511Z,2.80
2023-04-02T17:58:01.668Z,2.40
2023-04-02T18:00:45.794Z,2.30
2023-04-02T18:03:17.317Z,2.00
2023-04-02T18:05:49.757Z,2.70
2023-04-02T18:08:28.668Z,2.50
2023-04-02T18:11:22.925Z,2.40
2023-04-02T18:14:04.628Z,1.90
2023-04-02T18:17:08.986Z,1.90
2023-04-02T18:19:54.418Z,2.40
2023-04-02T18:22:39.378Z,2.00
2023-04-02T18:25:15.039Z,2.10
2023-04-02T18:27:49.607Z,2.40
2023-04-02T18:30:39.407Z,2.40
2023-04-02T18:33:21.181Z,2.70
2023-04-02T18:36:17.524Z,3.30
2023-04-02T18:38:55.257Z,2.00
2023-04-02T18:41:33.631Z,3.00
2023-04-02T18:44:22.720Z,1.90
2023-04-02T18:46:55.476Z,2.80
2023-04-02T18:49:28.898Z,3.10
2023-04-02T18:52:00.474Z,3.00
2023-04-02T18:54:32.977Z,3.50
2023-04-02T18:57:02.111Z,3.10
2023-04-02T18:59:49.788Z,3.20
2023-04-02T19:02:21.228Z,4.00
2023-04-02T19:05:13.037Z,3.20
2023-04-02T19:07:43.774Z,3.50
2023-04-02T19:10:37.040Z,3.20
2023-04-02T19:13:18.294Z,1.80
2023-04-02T19:16:22.212Z,3.60
2023-04-02T19:19:03.077Z,3.70
2023-04-02T19:21:50.402Z,2.70
2023-04-02T19:24:41.627Z,3.10
2023-04-02T19:27:34.037Z,3.10
2023-04-02T19:30:08.784Z,3.60
2023-04-02T19:32:46.407Z,4.00
2023-04-02T19:35:15.051Z,3.90
2023-04-02T19:37:46.247Z,3.30
2023-04-02T19:40:19.792Z,4.10
2023-04-02T19:42:54.477Z,3.00
2023-04-02T19:45:26.597Z,3.80
2023-04-02T19:47:55.945Z,3.20
2023-04-02T19:50:24.874Z,2.30
2023-04-02T19:52:53.200Z,3.10
2023-04-02T19:55:22.755Z,3.30
2023-04-02T19:57:52.720Z,2.60
2023-04-02T20:00:22.898Z,3.00
2023-04-02T20:02:51.588Z,3.10
2023-04-02T20:05:20.261Z,4.20
2023-04-02T20:07:49.965Z,4.00
2023-04-02T20:10:18.446Z,3.20
2023-04-02T20:12:48.393Z,3.30
2023-04-02T20:15:17.044Z,3.00
2023-04-02T20:17:45.763Z,2.50
2023-04-02T20:20:16.277Z,3.90
2023-04-02T20:22:45.558Z,3.40
2023-04-02T20:25:13.838Z,3.20
2023-04-02T20:27:42.164Z,2.90
2023-04-02T20:30:12.123Z,2.50
2023-04-02T20:33:00.454Z,2.80
2023-04-02T20:35:31.048Z,3.10
2023-04-02T20:38:00.912Z,2.60
2023-04-02T20:40:31.844Z,2.60
2023-04-02T20:43:02.216Z,2.50
2023-04-02T20:45:31.405Z,4.00
2023-04-02T20:47:59.822Z,3.00
2023-04-02T20:50:29.160Z,2.90
2023-04-02T20:52:59.265Z,2.50
2023-04-02T20:55:27.633Z,3.20
2023-04-02T20:57:57.608Z,3.70
2023-04-02T21:00:26.135Z,3.70
2023-04-02T21:02:55.758Z,3.00
2023-04-02T21:05:24.315Z,4.70
2023-04-02T21:07:52.915Z,4.00
2023-04-02T21:10:21.433Z,2.50
2023-04-02T21:12:50.526Z,3.10
2023-04-02T21:15:18.762Z,2.90
2023-04-02T21:17:47.682Z,4.30
2023-04-02T21:20:16.640Z,3.50
2023-04-02T21:22:45.111Z,5.00
2023-04-02T21:25:13.782Z,2.30
2023-04-02T21:27:42.272Z,2.10
2023-04-02T21:30:11.374Z,2.90
2023-04-02T21:32:39.820Z,3.80
2023-04-02T21:35:09.145Z,3.10
2023-04-02T21:37:37.520Z,3.60
2023-04-02T21:40:06.930Z,2.10
2023-04-02T21:42:35.401Z,2.50
2023-04-02T21:45:03.939Z,2.10
2023-04-02T21:47:32.622Z,3.50
2023-04-02T21:50:01.107Z,2.50
2023-04-02T21:52:29.712Z,3.20
2023-04-02T21:54:58.105Z,1.90
2023-04-02T21:57:26.503Z,2.60
2023-04-02T21:59:57.046Z,3.20
2023-04-02T22:02:30.843Z,3.10
2023-04-02T22:04:59.910Z,2.70
2023-04-02T22:07:28.204Z,2.80
2023-04-02T22:09:57.132Z,2.40
2023-04-02T22:12:26.270Z,2.00
2023-04-02T22:14:54.650Z,1.80
2023-04-02T22:17:24.194Z,3.70
2023-04-02T22:19:53.239Z,3.30
2023-04-02T22:22:21.832Z,2.70
2023-04-02T22:24:51.125Z,2.20
2023-04-02T22:27:19.601Z,2.80
2023-04-02T22:29:48.290Z,2.00
2023-04-02T22:32:17.181Z,2.80
2023-04-02T22:34:46.313Z,2.70
2023-04-02T22:37:14.647Z,3.10
2023-04-02T22:39:43.015Z,1.60
2023-04-02T22:42:11.288Z,3.70
2023-04-02T22:44:40.288Z,3.70
2023-04-02T22:47:08.973Z,2.50
2023-04-02T22:49:37.235Z,2.70
2023-04-02T22:52:07.055Z,2.90
2023-04-02T22:54:35.332Z,2.00
2023-04-02T22:57:05.413Z,2.50
2023-04-02T22:59:34.685Z,3.40
2023-04-02T23:02:03.150Z,3.60
2023-04-02T23:04:33.042Z,2.30
2023-04-02T23:07:02.116Z,2.30
2023-04-02T23:09:31.331Z,2.50
2023-04-02T23:11:59.652Z,2.70
2023-04-02T23:14:28.012Z,3.50
2023-04-02T23:16:56.313Z,2.80
2023-04-02T23:19:26.175Z,1.90
2023-04-02T23:21:54.551Z,3.20
2023-04-02T23:24:23.421Z,2.10
2023-04-02T23:26:52.024Z,2.10
2023-04-02T23:29:20.400Z,2.30
2023-04-02T23:31:49.445Z,2.20
2023-04-02T23:34:17.872Z,3.10
2023-04-02T23:36:46.657Z,3.00
2023-04-02T23:39:14.761Z,2.20
2023-04-02T23:41:43.928Z,2.80
2023-04-02T23:44:12.287Z,1.50
2023-04-02T23:46:42.012Z,1.50
2023-04-02T23:49:12.719Z,1.40
2023-04-02T23:51:41.696Z,2.60
2023-04-02T23:54:14.007Z,1.20
2023-04-02T23:56:43.723Z,1.70
2023-04-02T23:59:12.229Z,0.70
